Ruby, Louisiana
Current Conditions -  °F | °C
As of 2:53 PM on Friday 24 Oct 2014 (Local Time) from KESF Reporting Station
Clear Clear  
Wind Chill: 74°   Ceiling: Unl
Heat Index: 74°   Visibility: 10mi
Dew Point: 47°   Wind: 5mph
Humidity: 38%   Direction: NA
Pressure: 30.1"   Gusts: NA
Location:  31.19°N, 92.25°W
Report Text: KESF 241953Z AUTO VRB04KT 10SM CLR 23/08 A3010 RMK AO2 SLP192 T02330083
Loading
Personal Weather Stations






























Interactive Weather Map
Tropical Storm Tracking
New forecast layout! Learn more

10-Day Weather Forecast

Advertisements
Track Severe Weather on mobile